Time;durP1;ratioP1;P1;durP2;ratioP2;P2;SDS_P1;SDS_P2;PMS_P1;PMS_P2;Temp;Humidity;BMP_temperature;BMP_pressure;BME280_temperature;BME280_humidity;BME280_pressure;Samples;Min_cycle;Max_cycle;Signal;HPM_P1;HPM_P2
2022/09/23 11:34:26;;;;;;;1.80;1.70;;;;;;;;;;6276892;22;20031;-77
2022/09/23 11:37:08;;;;;;;1.17;1.13;;;;;;;;;;6277730;22;20043;-77
2022/09/23 11:39:42;;;;;;;2.03;1.48;;;;;;;;;;6277571;22;20014;-77
2022/09/23 11:42:18;;;;;;;1.75;1.65;;;;;;;;;;6246689;23;19996;-76
2022/09/23 11:44:51;;;;;;;2.75;2.10;;;;;;;;;;6246547;23;20008;-77
2022/09/23 11:47:43;;;;;;;1.92;1.83;;;;;;;;;;6246637;23;20319;-76
2022/09/23 17:12:31;;;;;;;2.40;2.20;;;;;;;;;;6279842;22;20015;-80
2022/09/23 17:14:56;;;;;;;4.35;2.05;;;;;;;;;;6278664;22;20040;-84
2022/09/23 17:17:22;;;;;;;3.13;2.83;;;;;;;;;;6278959;22;20007;-81
2022/09/23 17:19:47;;;;;;;2.90;2.70;;;;;;;;;;6256146;22;20078;-80
2022/09/23 17:22:50;;;;;;;2.67;2.40;;;;;;;;;;6248399;23;20300;-83
2022/09/23 17:25:40;;;;;;;3.53;3.17;;;;;;;;;;6248039;23;20003;-80
2022/09/23 17:28:06;;;;;;;2.60;2.40;;;;;;;;;;6247805;22;20015;-79
2022/09/23 17:30:31;;;;;;;2.30;2.10;;;;;;;;;;6248151;23;20400;-78
2022/09/23 17:32:57;;;;;;;5.78;2.75;;;;;;;;;;6248212;23;20404;-79
2022/09/23 17:35:22;;;;;;;2.33;2.13;;;;;;;;;;6247797;23;20376;-79
2022/09/23 17:37:48;;;;;;;4.13;2.25;;;;;;;;;;6248114;23;20430;-88
2022/09/23 17:40:14;;;;;;;3.58;2.90;;;;;;;;;;6248015;22;20004;-88
2022/09/23 17:42:40;;;;;;;5.03;2.50;;;;;;;;;;6248124;23;20079;-83
2022/09/23 17:45:08;;;;;;;2.70;2.38;;;;;;;;;;6221255;23;20026;-87
2022/09/23 17:47:34;;;;;;;2.70;2.30;;;;;;;;;;6248005;23;20399;-86
2022/09/23 17:49:59;;;;;;;6.28;2.75;;;;;;;;;;6247883;22;20011;-86
2022/09/23 17:52:24;;;;;;;3.42;2.65;;;;;;;;;;6247835;23;20004;-84
2022/09/23 17:54:53;;;;;;;2.60;2.40;;;;;;;;;;6248042;23;20079;-82
2022/09/23 17:57:19;;;;;;;6.18;2.92;;;;;;;;;;6247706;23;20079;-82
2022/09/23 17:59:47;;;;;;;3.30;2.60;;;;;;;;;;6247680;22;20036;-83
2022/09/23 18:02:12;;;;;;;3.20;2.38;;;;;;;;;;6247647;23;20323;-85
2022/09/23 18:04:38;;;;;;;5.25;2.72;;;;;;;;;;6247777;23;20001;-87
2022/09/23 18:07:03;;;;;;;8.30;3.88;;;;;;;;;;6247767;23;20027;-78
2022/09/23 18:09:29;;;;;;;6.00;4.30;;;;;;;;;;6220708;23;20004;-81
2022/09/23 18:11:55;;;;;;;5.53;3.03;;;;;;;;;;6248120;23;20087;-82
2022/09/23 18:14:21;;;;;;;3.88;3.20;;;;;;;;;;6249739;23;20056;-82
2022/09/23 18:16:50;;;;;;;4.20;2.53;;;;;;;;;;6249407;23;20419;-83
2022/09/23 18:19:19;;;;;;;4.00;2.70;;;;;;;;;;6249007;22;20004;-83
2022/09/23 18:21:56;;;;;;;4.05;2.38;;;;;;;;;;6250186;23;20007;-82
2022/09/23 18:24:22;;;;;;;2.60;2.25;;;;;;;;;;6249621;23;20000;-83
2022/09/23 18:26:52;;;;;;;4.28;2.47;;;;;;;;;;6248156;23;20087;-84
2022/09/23 18:29:18;;;;;;;5.63;3.17;;;;;;;;;;6246031;22;20000;-84
2022/09/23 18:31:44;;;;;;;4.40;2.97;;;;;;;;;;6248080;23;20485;-84
2022/09/23 18:34:12;;;;;;;3.72;2.60;;;;;;;;;;6247335;23;20035;-81
2022/09/23 18:36:39;;;;;;;4.72;2.72;;;;;;;;;;6247342;23;20007;-81
2022/09/23 18:39:05;;;;;;;3.13;2.38;;;;;;;;;;6247066;22;20072;-77
2022/09/23 18:41:31;;;;;;;2.83;2.20;;;;;;;;;;6247549;23;20007;-78
2022/09/23 18:43:57;;;;;;;2.20;1.98;;;;;;;;;;6245611;23;20004;-77
2022/09/23 18:46:30;;;;;;;2.10;1.85;;;;;;;;;;6246068;23;20012;-79
2022/09/23 18:51:58;;;;;;;2.17;1.98;;;;;;;;;;6247178;23;20012;-77
2022/09/23 18:54:26;;;;;;;2.65;1.98;;;;;;;;;;6247298;22;20004;-76
2022/09/23 18:56:53;;;;;;;3.22;2.90;;;;;;;;;;6247484;23;20428;-80
2022/09/23 18:59:22;;;;;;;2.35;2.15;;;;;;;;;;6247120;22;20035;-81
2022/09/23 19:01:48;;;;;;;;;;;;;;;;;;6245929;23;20339;-84
2022/09/23 19:04:17;;;;;;;2.20;2.00;;;;;;;;;;6247135;23;19908;-82
2022/09/23 19:06:42;;;;;;;2.00;1.80;;;;;;;;;;6245655;23;20012;-81
2022/09/23 19:09:08;;;;;;;3.15;1.83;;;;;;;;;;6246863;22;20379;-81
2022/09/23 19:11:35;;;;;;;2.50;1.90;;;;;;;;;;6246689;23;19996;-80
2022/09/23 19:14:03;;;;;;;2.22;1.90;;;;;;;;;;6245213;23;20411;-83
2022/09/23 19:16:33;;;;;;;2.45;2.00;;;;;;;;;;6247113;23;20004;-80
2022/09/23 19:19:00;;;;;;;2.17;1.73;;;;;;;;;;6246679;22;20335;-79
2022/09/23 19:21:28;;;;;;;1.90;1.80;;;;;;;;;;6247015;23;20000;-79
2022/09/23 19:24:07;;;;;;;1.92;1.70;;;;;;;;;;6247252;23;20482;-79
2022/09/23 19:26:39;;;;;;;3.13;2.40;;;;;;;;;;6246937;22;20004;-82
2022/09/23 19:29:07;;;;;;;3.15;2.50;;;;;;;;;;6245217;22;20008;-81
2022/09/23 19:31:39;;;;;;;4.13;2.53;;;;;;;;;;6247148;23;20011;-83
2022/09/23 19:34:16;;;;;;;3.40;3.10;;;;;;;;;;6247573;23;20309;-83
2022/09/23 19:36:43;;;;;;;5.05;2.60;;;;;;;;;;6248170;23;20000;-96
2022/09/23 19:39:19;;;;;;;3.22;2.40;;;;;;;;;;6246743;22;20008;-83
2022/09/23 19:41:47;;;;;;;4.03;2.90;;;;;;;;;;6246912;22;20011;-88
2022/09/23 19:44:14;;;;;;;3.80;2.83;;;;;;;;;;6247471;23;20004;-82
2022/09/23 19:46:44;;;;;;;4.47;2.90;;;;;;;;;;6247269;22;20313;-81
2022/09/23 19:49:10;;;;;;;7.20;3.75;;;;;;;;;;6246887;22;20000;-81
2022/09/23 19:51:37;;;;;;;5.68;3.15;;;;;;;;;;6245524;23;20000;-82
2022/09/23 19:54:05;;;;;;;3.53;2.72;;;;;;;;;;6246561;23;20008;-80
2022/09/23 19:56:32;;;;;;;4.80;2.83;;;;;;;;;;6245117;23;20004;-80
2022/09/23 19:58:59;;;;;;;5.18;2.85;;;;;;;;;;6246458;22;20031;-80
2022/09/23 20:01:26;;;;;;;8.10;3.90;;;;;;;;;;6245019;23;20312;-80
2022/09/23 20:03:52;;;;;;;3.00;2.70;;;;;;;;;;6246393;23;20411;-82
2022/09/23 20:06:23;;;;;;;2.78;2.58;;;;;;;;;;6246638;23;20319;-80
2022/09/23 20:08:49;;;;;;;3.20;2.50;;;;;;;;;;6246555;22;20078;-80
2022/09/23 20:11:20;;;;;;;3.92;2.17;;;;;;;;;;6246854;23;20012;-80
2022/09/23 20:13:47;;;;;;;3.72;2.60;;;;;;;;;;6244613;23;20016;-79
2022/09/23 20:16:17;;;;;;;3.22;2.63;;;;;;;;;;6246561;23;20007;-81
2022/09/23 20:18:45;;;;;;;3.28;2.63;;;;;;;;;;6246368;22;20008;-81
2022/09/23 20:21:14;;;;;;;2.97;2.50;;;;;;;;;;6246199;23;20007;-80
2022/09/23 20:23:41;;;;;;;2.55;2.20;;;;;;;;;;6246488;23;20008;-79
2022/09/23 20:28:52;;;;;;;4.47;3.70;;;;;;;;;;6246472;22;20015;-80
2022/09/23 20:31:20;;;;;;;4.32;3.28;;;;;;;;;;6246310;23;20000;-80
2022/09/23 20:34:04;;;;;;;6.22;3.15;;;;;;;;;;6246373;23;20431;-80
2022/09/23 20:36:30;;;;;;;3.10;2.35;;;;;;;;;;6246271;22;20331;-80
2022/09/23 20:38:59;;;;;;;2.78;2.47;;;;;;;;;;6246328;22;20320;-80
2022/09/23 20:41:26;;;;;;;2.83;2.40;;;;;;;;;;6246454;23;20004;-80
2022/09/23 20:43:53;;;;;;;2.50;2.30;;;;;;;;;;6246330;23;20058;-81
2022/09/23 20:46:21;;;;;;;2.42;2.22;;;;;;;;;;6246471;23;20004;-79
2022/09/23 20:48:48;;;;;;;2.65;2.45;;;;;;;;;;6246692;22;20031;-80
2022/09/23 20:51:13;;;;;;;2.42;2.10;;;;;;;;;;6246785;23;20031;-80
2022/09/23 20:53:39;;;;;;;3.25;2.83;;;;;;;;;;6246662;23;20070;-81
2022/09/23 20:56:05;;;;;;;3.17;2.10;;;;;;;;;;6245031;23;20018;-80
2022/09/23 20:58:35;;;;;;;2.00;1.90;;;;;;;;;;6246120;22;20046;-79
2022/09/23 21:01:09;;;;;;;2.50;2.05;;;;;;;;;;6246986;23;20391;-79
2022/09/23 21:03:37;;;;;;;2.85;1.95;;;;;;;;;;6244755;23;20009;-79
2022/09/23 21:06:03;;;;;;;2.28;2.05;;;;;;;;;;6246196;23;20008;-80
2022/09/23 21:08:30;;;;;;;2.30;2.10;;;;;;;;;;6246296;22;20075;-80
2022/09/23 21:10:57;;;;;;;2.40;2.20;;;;;;;;;;6246519;23;20004;-82
2022/09/23 21:13:23;;;;;;;2.53;2.33;;;;;;;;;;6246168;23;20351;-79
2022/09/23 21:15:49;;;;;;;2.97;2.50;;;;;;;;;;6246284;23;20376;-80
2022/09/23 21:18:14;;;;;;;4.07;2.35;;;;;;;;;;6246573;22;20000;-81
2022/09/23 21:20:41;;;;;;;3.30;2.17;;;;;;;;;;6244678;23;20082;-80
2022/09/23 21:23:06;;;;;;;3.10;2.33;;;;;;;;;;6246440;23;20011;-80
2022/09/23 21:25:34;;;;;;;5.18;2.53;;;;;;;;;;6246260;22;20004;-80
2022/09/23 21:28:01;;;;;;;4.03;3.63;;;;;;;;;;6246276;23;20017;-79
2022/09/23 21:30:28;;;;;;;3.67;3.13;;;;;;;;;;6246499;23;20004;-82
2022/09/23 21:32:54;;;;;;;7.15;3.20;;;;;;;;;;6246374;23;20011;-80
2022/09/23 21:35:20;;;;;;;4.60;3.38;;;;;;;;;;6248147;23;20004;-83
2022/09/23 21:37:46;;;;;;;5.82;3.60;;;;;;;;;;6246640;23;20015;-80
2022/09/23 21:42:59;;;;;;;3.28;2.92;;;;;;;;;;6248027;23;20059;-81
2022/09/23 21:45:25;;;;;;;3.65;3.25;;;;;;;;;;6248104;22;20411;-83
2022/09/23 21:47:51;;;;;;;5.53;3.88;;;;;;;;;;6248219;23;20477;-80
2022/09/23 21:50:17;;;;;;;4.57;3.15;;;;;;;;;;6247920;22;20004;-80
2022/09/23 21:52:45;;;;;;;4.13;3.33;;;;;;;;;;6246459;23;20419;-81
2022/09/23 21:55:11;;;;;;;2.92;2.72;;;;;;;;;;6248512;23;20426;-80
2022/09/23 21:57:37;;;;;;;6.78;3.72;;;;;;;;;;6247325;23;20331;-80
2022/09/23 22:00:05;;;;;;;4.65;3.17;;;;;;;;;;6248165;22;20004;-81
2022/09/23 22:02:30;;;;;;;3.92;3.33;;;;;;;;;;6248136;23;20011;-80
2022/09/23 22:04:56;;;;;;;3.60;3.30;;;;;;;;;;6248206;23;20330;-80
2022/09/23 22:07:22;;;;;;;4.63;2.97;;;;;;;;;;6248332;23;20050;-80
2022/09/23 22:09:47;;;;;;;3.13;2.63;;;;;;;;;;6248100;22;20123;-81
2022/09/23 22:12:12;;;;;;;3.80;3.08;;;;;;;;;;6248194;23;20012;-79
2022/09/23 22:14:38;;;;;;;4.80;2.85;;;;;;;;;;6246656;23;20475;-81
2022/09/23 22:17:06;;;;;;;4.47;4.00;;;;;;;;;;6248013;23;20000;-79
2022/09/23 22:19:37;;;;;;;3.97;3.55;;;;;;;;;;6248069;22;20004;-79
2022/09/23 22:22:11;;;;;;;3.72;3.25;;;;;;;;;;6248024;23;20012;-81
2022/09/23 22:24:37;;;;;;;5.25;3.40;;;;;;;;;;6248046;23;20000;-79
2022/09/23 22:27:02;;;;;;;5.05;2.65;;;;;;;;;;6248194;23;20008;-79
2022/09/23 22:34:56;;;;;;;3.70;2.42;;;;;;;;;;6247907;23;20056;-80
2022/09/23 22:37:32;;;;;;;2.97;2.70;;;;;;;;;;6247535;23;20011;-81
2022/09/23 22:39:59;;;;;;;3.05;2.45;;;;;;;;;;6245779;22;20012;-81
2022/09/23 22:42:25;;;;;;;2.58;2.38;;;;;;;;;;6247781;23;20004;-81
2022/09/23 22:44:50;;;;;;;2.55;2.38;;;;;;;;;;6247126;23;20363;-80
2022/09/23 22:47:17;;;;;;;3.08;2.20;;;;;;;;;;6247802;23;20079;-80
2022/09/23 22:49:42;;;;;;;2.83;2.53;;;;;;;;;;6247627;22;20463;-80
2022/09/23 22:52:10;;;;;;;2.00;1.80;;;;;;;;;;6247598;23;20075;-78
